sensor_id;sensor_type;location;lat;lon;timestamp;P1;durP1;ratioP1;P2;durP2;ratioP2
41984;SDS011;28319;48.116;10.818;2023-05-10T00:02:35;0.57;;;0.57;;
41984;SDS011;28319;48.116;10.818;2023-05-10T00:07:37;0.63;;;0.63;;
41984;SDS011;28319;48.116;10.818;2023-05-10T00:12:39;1.30;;;0.40;;
41984;SDS011;28319;48.116;10.818;2023-05-10T00:17:43;0.60;;;0.60;;
41984;SDS011;28319;48.116;10.818;2023-05-10T00:22:45;0.50;;;0.50;;
41984;SDS011;28319;48.116;10.818;2023-05-10T00:27:47;2.70;;;0.43;;
41984;SDS011;28319;48.116;10.818;2023-05-10T00:32:51;0.40;;;0.40;;
41984;SDS011;28319;48.116;10.818;2023-05-10T00:37:53;0.30;;;0.30;;
41984;SDS011;28319;48.116;10.818;2023-05-10T00:42:54;0.50;;;0.50;;
41984;SDS011;28319;48.116;10.818;2023-05-10T00:47:58;0.27;;;0.27;;
41984;SDS011;28319;48.116;10.818;2023-05-10T00:53:02;0.60;;;0.50;;
41984;SDS011;28319;48.116;10.818;2023-05-10T00:58:04;0.30;;;0.30;;
41984;SDS011;28319;48.116;10.818;2023-05-10T01:03:08;0.40;;;0.40;;
41984;SDS011;28319;48.116;10.818;2023-05-10T01:08:11;0.97;;;0.43;;
41984;SDS011;28319;48.116;10.818;2023-05-10T01:13:13;0.40;;;0.40;;
41984;SDS011;28319;48.116;10.818;2023-05-10T01:18:21;0.40;;;0.40;;
41984;SDS011;28319;48.116;10.818;2023-05-10T01:23:36;0.53;;;0.53;;
41984;SDS011;28319;48.116;10.818;2023-05-10T01:28:56;0.50;;;0.50;;
41984;SDS011;28319;48.116;10.818;2023-05-10T01:34:12;0.47;;;0.47;;
41984;SDS011;28319;48.116;10.818;2023-05-10T01:39:21;0.67;;;0.30;;
41984;SDS011;28319;48.116;10.818;2023-05-10T01:44:28;0.40;;;0.40;;
41984;SDS011;28319;48.116;10.818;2023-05-10T01:49:39;0.50;;;0.50;;
41984;SDS011;28319;48.116;10.818;2023-05-10T01:54:48;0.60;;;0.60;;
41984;SDS011;28319;48.116;10.818;2023-05-10T01:59:55;0.60;;;0.60;;
41984;SDS011;28319;48.116;10.818;2023-05-10T02:05:00;0.93;;;0.70;;
41984;SDS011;28319;48.116;10.818;2023-05-10T02:10:05;0.30;;;0.30;;
41984;SDS011;28319;48.116;10.818;2023-05-10T02:15:10;0.50;;;0.50;;
41984;SDS011;28319;48.116;10.818;2023-05-10T02:20:15;0.60;;;0.60;;
41984;SDS011;28319;48.116;10.818;2023-05-10T02:25:20;0.40;;;0.40;;
41984;SDS011;28319;48.116;10.818;2023-05-10T02:30:24;0.40;;;0.40;;
41984;SDS011;28319;48.116;10.818;2023-05-10T02:35:28;1.73;;;0.63;;
41984;SDS011;28319;48.116;10.818;2023-05-10T02:40:33;0.40;;;0.40;;
41984;SDS011;28319;48.116;10.818;2023-05-10T02:45:36;0.90;;;0.40;;
41984;SDS011;28319;48.116;10.818;2023-05-10T02:50:42;0.47;;;0.47;;
41984;SDS011;28319;48.116;10.818;2023-05-10T02:55:48;0.70;;;0.70;;
41984;SDS011;28319;48.116;10.818;2023-05-10T03:00:54;0.50;;;0.50;;
41984;SDS011;28319;48.116;10.818;2023-05-10T03:05:57;0.40;;;0.40;;
41984;SDS011;28319;48.116;10.818;2023-05-10T03:11:05;0.50;;;0.50;;
41984;SDS011;28319;48.116;10.818;2023-05-10T03:16:20;0.33;;;0.33;;
41984;SDS011;28319;48.116;10.818;2023-05-10T03:21:28;0.30;;;0.30;;
41984;SDS011;28319;48.116;10.818;2023-05-10T03:26:31;0.30;;;0.30;;
41984;SDS011;28319;48.116;10.818;2023-05-10T03:31:34;0.30;;;0.30;;
41984;SDS011;28319;48.116;10.818;2023-05-10T03:36:37;0.40;;;0.40;;
41984;SDS011;28319;48.116;10.818;2023-05-10T03:41:39;0.20;;;0.20;;
41984;SDS011;28319;48.116;10.818;2023-05-10T03:46:41;0.30;;;0.30;;
41984;SDS011;28319;48.116;10.818;2023-05-10T03:51:45;0.20;;;0.20;;
41984;SDS011;28319;48.116;10.818;2023-05-10T03:56:47;0.43;;;0.43;;
41984;SDS011;28319;48.116;10.818;2023-05-10T04:01:49;0.40;;;0.40;;
41984;SDS011;28319;48.116;10.818;2023-05-10T04:06:52;0.50;;;0.50;;
41984;SDS011;28319;48.116;10.818;2023-05-10T04:11:54;0.30;;;0.30;;
41984;SDS011;28319;48.116;10.818;2023-05-10T04:16:56;0.30;;;0.30;;
41984;SDS011;28319;48.116;10.818;2023-05-10T04:22:01;0.30;;;0.30;;
41984;SDS011;28319;48.116;10.818;2023-05-10T04:27:03;0.33;;;0.33;;
41984;SDS011;28319;48.116;10.818;2023-05-10T04:32:05;3.70;;;0.40;;
41984;SDS011;28319;48.116;10.818;2023-05-10T04:37:09;0.27;;;0.27;;
41984;SDS011;28319;48.116;10.818;2023-05-10T04:42:11;0.27;;;0.27;;
41984;SDS011;28319;48.116;10.818;2023-05-10T04:47:14;0.40;;;0.40;;
41984;SDS011;28319;48.116;10.818;2023-05-10T04:52:18;2.83;;;0.60;;
41984;SDS011;28319;48.116;10.818;2023-05-10T04:57:20;0.40;;;0.40;;
41984;SDS011;28319;48.116;10.818;2023-05-10T05:02:22;1.23;;;0.40;;
41984;SDS011;28319;48.116;10.818;2023-05-10T05:07:26;0.60;;;0.60;;
41984;SDS011;28319;48.116;10.818;2023-05-10T05:12:28;0.30;;;0.30;;
41984;SDS011;28319;48.116;10.818;2023-05-10T05:17:30;0.40;;;0.40;;
41984;SDS011;28319;48.116;10.818;2023-05-10T05:22:35;1.40;;;0.30;;
41984;SDS011;28319;48.116;10.818;2023-05-10T05:27:37;0.50;;;0.50;;
41984;SDS011;28319;48.116;10.818;2023-05-10T05:32:39;1.83;;;0.50;;
41984;SDS011;28319;48.116;10.818;2023-05-10T05:37:42;0.43;;;0.43;;
41984;SDS011;28319;48.116;10.818;2023-05-10T05:42:44;0.30;;;0.30;;
41984;SDS011;28319;48.116;10.818;2023-05-10T05:47:46;0.40;;;0.40;;
41984;SDS011;28319;48.116;10.818;2023-05-10T05:52:50;0.40;;;0.40;;
41984;SDS011;28319;48.116;10.818;2023-05-10T05:57:52;0.50;;;0.50;;
41984;SDS011;28319;48.116;10.818;2023-05-10T06:02:54;0.77;;;0.60;;
41984;SDS011;28319;48.116;10.818;2023-05-10T06:07:58;0.33;;;0.33;;
41984;SDS011;28319;48.116;10.818;2023-05-10T06:13:01;0.40;;;0.40;;
41984;SDS011;28319;48.116;10.818;2023-05-10T06:18:04;0.40;;;0.40;;
41984;SDS011;28319;48.116;10.818;2023-05-10T06:23:07;0.70;;;0.50;;
41984;SDS011;28319;48.116;10.818;2023-05-10T06:28:09;0.73;;;0.60;;
41984;SDS011;28319;48.116;10.818;2023-05-10T06:33:11;1.23;;;0.63;;
41984;SDS011;28319;48.116;10.818;2023-05-10T06:38:14;0.50;;;0.50;;
41984;SDS011;28319;48.116;10.818;2023-05-10T06:43:16;3.70;;;0.93;;
41984;SDS011;28319;48.116;10.818;2023-05-10T06:48:18;0.50;;;0.40;;
41984;SDS011;28319;48.116;10.818;2023-05-10T06:53:22;0.87;;;0.50;;
41984;SDS011;28319;48.116;10.818;2023-05-10T06:58:24;0.57;;;0.50;;
41984;SDS011;28319;48.116;10.818;2023-05-10T07:03:26;0.60;;;0.60;;
41984;SDS011;28319;48.116;10.818;2023-05-10T07:08:29;0.57;;;0.57;;
41984;SDS011;28319;48.116;10.818;2023-05-10T07:13:32;1.65;;;0.60;;
41984;SDS011;28319;48.116;10.818;2023-05-10T07:18:34;1.38;;;1.10;;
41984;SDS011;28319;48.116;10.818;2023-05-10T07:23:37;0.60;;;0.60;;
41984;SDS011;28319;48.116;10.818;2023-05-10T07:28:39;0.70;;;0.70;;
41984;SDS011;28319;48.116;10.818;2023-05-10T07:33:41;0.50;;;0.50;;
41984;SDS011;28319;48.116;10.818;2023-05-10T07:38:45;0.63;;;0.63;;
41984;SDS011;28319;48.116;10.818;2023-05-10T07:43:46;0.70;;;0.70;;
41984;SDS011;28319;48.116;10.818;2023-05-10T07:48:48;0.70;;;0.70;;
41984;SDS011;28319;48.116;10.818;2023-05-10T07:53:52;0.80;;;0.77;;
41984;SDS011;28319;48.116;10.818;2023-05-10T07:58:54;0.70;;;0.70;;
41984;SDS011;28319;48.116;10.818;2023-05-10T08:03:57;0.70;;;0.70;;
41984;SDS011;28319;48.116;10.818;2023-05-10T08:09:00;0.65;;;0.65;;
41984;SDS011;28319;48.116;10.818;2023-05-10T08:14:02;1.65;;;0.93;;
41984;SDS011;28319;48.116;10.818;2023-05-10T08:19:04;0.80;;;0.80;;
41984;SDS011;28319;48.116;10.818;2023-05-10T08:24:08;2.05;;;1.10;;
41984;SDS011;28319;48.116;10.818;2023-05-10T08:29:10;0.60;;;0.60;;
41984;SDS011;28319;48.116;10.818;2023-05-10T08:34:12;1.02;;;1.02;;
41984;SDS011;28319;48.116;10.818;2023-05-10T08:39:15;0.80;;;0.77;;
41984;SDS011;28319;48.116;10.818;2023-05-10T08:44:17;1.17;;;0.95;;
41984;SDS011;28319;48.116;10.818;2023-05-10T08:49:20;0.93;;;0.93;;
41984;SDS011;28319;48.116;10.818;2023-05-10T08:54:24;1.35;;;0.70;;
41984;SDS011;28319;48.116;10.818;2023-05-10T08:59:26;0.82;;;0.82;;
41984;SDS011;28319;48.116;10.818;2023-05-10T09:04:29;1.55;;;0.85;;
41984;SDS011;28319;48.116;10.818;2023-05-10T09:09:33;0.90;;;0.88;;
41984;SDS011;28319;48.116;10.818;2023-05-10T09:14:37;1.25;;;0.75;;
41984;SDS011;28319;48.116;10.818;2023-05-10T09:19:40;0.68;;;0.68;;
41984;SDS011;28319;48.116;10.818;2023-05-10T09:24:43;1.17;;;0.80;;
41984;SDS011;28319;48.116;10.818;2023-05-10T09:29:46;1.35;;;0.55;;
41984;SDS011;28319;48.116;10.818;2023-05-10T09:34:48;0.95;;;0.57;;
41984;SDS011;28319;48.116;10.818;2023-05-10T09:39:52;0.43;;;0.43;;
41984;SDS011;28319;48.116;10.818;2023-05-10T09:44:59;0.50;;;0.50;;
41984;SDS011;28319;48.116;10.818;2023-05-10T09:50:02;0.70;;;0.70;;
41984;SDS011;28319;48.116;10.818;2023-05-10T09:55:07;1.30;;;0.90;;
41984;SDS011;28319;48.116;10.818;2023-05-10T10:00:10;0.80;;;0.80;;
41984;SDS011;28319;48.116;10.818;2023-05-10T10:05:17;1.50;;;0.80;;
41984;SDS011;28319;48.116;10.818;2023-05-10T10:10:21;0.82;;;0.82;;
41984;SDS011;28319;48.116;10.818;2023-05-10T10:15:24;1.65;;;0.68;;
41984;SDS011;28319;48.116;10.818;2023-05-10T10:20:26;2.50;;;0.77;;
41984;SDS011;28319;48.116;10.818;2023-05-10T10:25:30;1.05;;;1.00;;
41984;SDS011;28319;48.116;10.818;2023-05-10T10:30:35;0.82;;;0.80;;
41984;SDS011;28319;48.116;10.818;2023-05-10T10:35:42;0.70;;;0.70;;
41984;SDS011;28319;48.116;10.818;2023-05-10T10:40:48;0.73;;;0.70;;
41984;SDS011;28319;48.116;10.818;2023-05-10T10:46:09;0.82;;;0.82;;
41984;SDS011;28319;48.116;10.818;2023-05-10T10:51:13;1.20;;;0.70;;
41984;SDS011;28319;48.116;10.818;2023-05-10T10:56:17;0.90;;;0.90;;
41984;SDS011;28319;48.116;10.818;2023-05-10T11:01:24;0.80;;;0.80;;
41984;SDS011;28319;48.116;10.818;2023-05-10T11:06:35;1.67;;;0.93;;
41984;SDS011;28319;48.116;10.818;2023-05-10T11:11:48;0.60;;;0.60;;
41984;SDS011;28319;48.116;10.818;2023-05-10T11:16:52;0.55;;;0.55;;
41984;SDS011;28319;48.116;10.818;2023-05-10T11:27:15;1.10;;;1.10;;
41984;SDS011;28319;48.116;10.818;2023-05-10T11:32:17;1.23;;;0.85;;
41984;SDS011;28319;48.116;10.818;2023-05-10T11:37:21;0.50;;;0.50;;
41984;SDS011;28319;48.116;10.818;2023-05-10T11:42:24;0.80;;;0.80;;
41984;SDS011;28319;48.116;10.818;2023-05-10T11:47:26;0.82;;;0.82;;
41984;SDS011;28319;48.116;10.818;2023-05-10T11:52:28;1.40;;;1.27;;
41984;SDS011;28319;48.116;10.818;2023-05-10T11:57:32;1.00;;;1.00;;
41984;SDS011;28319;48.116;10.818;2023-05-10T12:02:34;1.08;;;1.08;;
41984;SDS011;28319;48.116;10.818;2023-05-10T12:07:36;1.50;;;0.90;;
41984;SDS011;28319;48.116;10.818;2023-05-10T12:12:41;9.93;;;0.85;;
41984;SDS011;28319;48.116;10.818;2023-05-10T12:17:44;0.95;;;0.95;;
41984;SDS011;28319;48.116;10.818;2023-05-10T12:22:47;0.80;;;0.80;;
41984;SDS011;28319;48.116;10.818;2023-05-10T12:27:53;0.45;;;0.45;;
41984;SDS011;28319;48.116;10.818;2023-05-10T12:32:59;1.60;;;0.60;;
41984;SDS011;28319;48.116;10.818;2023-05-10T12:43:28;0.40;;;0.40;;
41984;SDS011;28319;48.116;10.818;2023-05-10T12:48:31;0.32;;;0.32;;
41984;SDS011;28319;48.116;10.818;2023-05-10T12:53:34;0.93;;;0.50;;
41984;SDS011;28319;48.116;10.818;2023-05-10T12:58:37;0.50;;;0.50;;
41984;SDS011;28319;48.116;10.818;2023-05-10T13:03:39;0.37;;;0.37;;
41984;SDS011;28319;48.116;10.818;2023-05-10T13:08:43;0.70;;;0.70;;
41984;SDS011;28319;48.116;10.818;2023-05-10T13:13:46;0.43;;;0.43;;
41984;SDS011;28319;48.116;10.818;2023-05-10T13:18:48;0.57;;;0.57;;
41984;SDS011;28319;48.116;10.818;2023-05-10T13:23:50;0.60;;;0.60;;
41984;SDS011;28319;48.116;10.818;2023-05-10T13:28:53;0.60;;;0.60;;
41984;SDS011;28319;48.116;10.818;2023-05-10T13:33:55;1.23;;;1.13;;
41984;SDS011;28319;48.116;10.818;2023-05-10T13:38:57;0.87;;;0.87;;
41984;SDS011;28319;48.116;10.818;2023-05-10T13:44:02;0.43;;;0.43;;
41984;SDS011;28319;48.116;10.818;2023-05-10T13:49:04;3.03;;;0.70;;
41984;SDS011;28319;48.116;10.818;2023-05-10T13:54:07;1.03;;;1.00;;
41984;SDS011;28319;48.116;10.818;2023-05-10T13:59:10;0.90;;;0.90;;
41984;SDS011;28319;48.116;10.818;2023-05-10T14:04:12;1.07;;;0.73;;
41984;SDS011;28319;48.116;10.818;2023-05-10T14:09:14;0.70;;;0.70;;
41984;SDS011;28319;48.116;10.818;2023-05-10T14:14:18;1.63;;;0.93;;
41984;SDS011;28319;48.116;10.818;2023-05-10T14:19:20;0.60;;;0.60;;
41984;SDS011;28319;48.116;10.818;2023-05-10T14:24:22;0.60;;;0.60;;
41984;SDS011;28319;48.116;10.818;2023-05-10T14:29:25;1.10;;;1.10;;
41984;SDS011;28319;48.116;10.818;2023-05-10T14:34:27;1.13;;;0.90;;
41984;SDS011;28319;48.116;10.818;2023-05-10T14:39:29;0.80;;;0.80;;
41984;SDS011;28319;48.116;10.818;2023-05-10T14:44:34;1.20;;;1.10;;
41984;SDS011;28319;48.116;10.818;2023-05-10T14:49:36;1.53;;;1.40;;
41984;SDS011;28319;48.116;10.818;2023-05-10T14:54:38;0.80;;;0.80;;
41984;SDS011;28319;48.116;10.818;2023-05-10T14:59:42;0.70;;;0.70;;
41984;SDS011;28319;48.116;10.818;2023-05-10T15:04:43;1.27;;;1.00;;
41984;SDS011;28319;48.116;10.818;2023-05-10T15:09:45;0.63;;;0.63;;
41984;SDS011;28319;48.116;10.818;2023-05-10T15:14:49;0.70;;;0.70;;
41984;SDS011;28319;48.116;10.818;2023-05-10T15:19:51;0.80;;;0.53;;
41984;SDS011;28319;48.116;10.818;2023-05-10T15:24:53;0.90;;;0.80;;
41984;SDS011;28319;48.116;10.818;2023-05-10T15:29:56;2.60;;;0.60;;
41984;SDS011;28319;48.116;10.818;2023-05-10T15:34:59;0.63;;;0.63;;
41984;SDS011;28319;48.116;10.818;2023-05-10T15:40:02;1.80;;;0.80;;
41984;SDS011;28319;48.116;10.818;2023-05-10T15:45:07;1.30;;;1.20;;
41984;SDS011;28319;48.116;10.818;2023-05-10T15:50:10;2.30;;;1.20;;
41984;SDS011;28319;48.116;10.818;2023-05-10T15:55:12;1.07;;;1.00;;
41984;SDS011;28319;48.116;10.818;2023-05-10T16:00:16;1.70;;;1.60;;
41984;SDS011;28319;48.116;10.818;2023-05-10T16:05:19;0.83;;;0.83;;
41984;SDS011;28319;48.116;10.818;2023-05-10T16:10:21;0.70;;;0.60;;
41984;SDS011;28319;48.116;10.818;2023-05-10T16:15:24;0.63;;;0.63;;
41984;SDS011;28319;48.116;10.818;2023-05-10T16:20:26;4.37;;;0.90;;
41984;SDS011;28319;48.116;10.818;2023-05-10T16:25:29;1.17;;;0.70;;
41984;SDS011;28319;48.116;10.818;2023-05-10T16:30:32;0.60;;;0.60;;
41984;SDS011;28319;48.116;10.818;2023-05-10T16:35:34;1.00;;;0.87;;
41984;SDS011;28319;48.116;10.818;2023-05-10T16:40:36;1.13;;;0.90;;
41984;SDS011;28319;48.116;10.818;2023-05-10T16:45:40;1.47;;;1.00;;
41984;SDS011;28319;48.116;10.818;2023-05-10T16:50:42;1.47;;;1.37;;
41984;SDS011;28319;48.116;10.818;2023-05-10T16:55:44;3.77;;;1.33;;
41984;SDS011;28319;48.116;10.818;2023-05-10T17:00:48;1.50;;;1.47;;
41984;SDS011;28319;48.116;10.818;2023-05-10T17:05:49;3.77;;;2.50;;
41984;SDS011;28319;48.116;10.818;2023-05-10T17:10:52;1.80;;;1.40;;
41984;SDS011;28319;48.116;10.818;2023-05-10T17:15:55;1.27;;;1.17;;
41984;SDS011;28319;48.116;10.818;2023-05-10T17:20:57;3.33;;;2.80;;
41984;SDS011;28319;48.116;10.818;2023-05-10T17:25:59;2.80;;;2.40;;
41984;SDS011;28319;48.116;10.818;2023-05-10T17:31:06;2.27;;;2.07;;
41984;SDS011;28319;48.116;10.818;2023-05-10T17:36:08;2.53;;;1.70;;
41984;SDS011;28319;48.116;10.818;2023-05-10T17:41:10;1.80;;;1.70;;
41984;SDS011;28319;48.116;10.818;2023-05-10T17:46:13;1.67;;;1.40;;
41984;SDS011;28319;48.116;10.818;2023-05-10T17:51:16;1.67;;;1.57;;
41984;SDS011;28319;48.116;10.818;2023-05-10T17:56:19;2.07;;;1.40;;
41984;SDS011;28319;48.116;10.818;2023-05-10T18:01:22;1.50;;;1.40;;
41984;SDS011;28319;48.116;10.818;2023-05-10T18:06:24;3.50;;;1.50;;
41984;SDS011;28319;48.116;10.818;2023-05-10T18:11:26;1.60;;;1.50;;
41984;SDS011;28319;48.116;10.818;2023-05-10T18:16:30;1.50;;;1.40;;
41984;SDS011;28319;48.116;10.818;2023-05-10T18:21:32;2.10;;;1.80;;
41984;SDS011;28319;48.116;10.818;2023-05-10T18:26:34;1.80;;;1.70;;
41984;SDS011;28319;48.116;10.818;2023-05-10T18:31:37;1.90;;;1.80;;
41984;SDS011;28319;48.116;10.818;2023-05-10T18:36:39;2.73;;;1.90;;
41984;SDS011;28319;48.116;10.818;2023-05-10T18:41:42;2.10;;;1.80;;
41984;SDS011;28319;48.116;10.818;2023-05-10T18:46:46;2.10;;;1.90;;
41984;SDS011;28319;48.116;10.818;2023-05-10T18:51:51;1.80;;;1.70;;
41984;SDS011;28319;48.116;10.818;2023-05-10T18:56:53;1.60;;;1.50;;
41984;SDS011;28319;48.116;10.818;2023-05-10T19:01:57;2.20;;;1.40;;
41984;SDS011;28319;48.116;10.818;2023-05-10T19:06:59;1.33;;;1.30;;
41984;SDS011;28319;48.116;10.818;2023-05-10T19:12:02;1.60;;;1.50;;
41984;SDS011;28319;48.116;10.818;2023-05-10T19:17:06;1.73;;;1.60;;
41984;SDS011;28319;48.116;10.818;2023-05-10T19:22:07;1.80;;;1.70;;
41984;SDS011;28319;48.116;10.818;2023-05-10T19:27:09;1.70;;;1.60;;
41984;SDS011;28319;48.116;10.818;2023-05-10T19:32:13;2.70;;;2.50;;
41984;SDS011;28319;48.116;10.818;2023-05-10T19:37:15;3.10;;;2.90;;
41984;SDS011;28319;48.116;10.818;2023-05-10T19:42:17;9.23;;;5.87;;
41984;SDS011;28319;48.116;10.818;2023-05-10T19:47:21;3.50;;;2.57;;
41984;SDS011;28319;48.116;10.818;2023-05-10T19:52:23;3.40;;;3.10;;
41984;SDS011;28319;48.116;10.818;2023-05-10T19:57:25;6.37;;;3.50;;
41984;SDS011;28319;48.116;10.818;2023-05-10T20:02:29;2.87;;;2.67;;
41984;SDS011;28319;48.116;10.818;2023-05-10T20:07:31;3.67;;;3.30;;
41984;SDS011;28319;48.116;10.818;2023-05-10T20:12:33;3.43;;;2.93;;
41984;SDS011;28319;48.116;10.818;2023-05-10T20:17:37;4.70;;;2.50;;
41984;SDS011;28319;48.116;10.818;2023-05-10T20:22:38;2.50;;;2.30;;
41984;SDS011;28319;48.116;10.818;2023-05-10T20:27:40;7.77;;;4.50;;
41984;SDS011;28319;48.116;10.818;2023-05-10T20:32:44;4.27;;;2.80;;
41984;SDS011;28319;48.116;10.818;2023-05-10T20:37:46;7.20;;;2.30;;
41984;SDS011;28319;48.116;10.818;2023-05-10T20:42:48;1.50;;;1.40;;
41984;SDS011;28319;48.116;10.818;2023-05-10T20:47:54;1.60;;;1.50;;
41984;SDS011;28319;48.116;10.818;2023-05-10T20:52:57;1.13;;;1.10;;
41984;SDS011;28319;48.116;10.818;2023-05-10T20:57:59;1.73;;;1.60;;
41984;SDS011;28319;48.116;10.818;2023-05-10T21:03:03;1.10;;;1.10;;
41984;SDS011;28319;48.116;10.818;2023-05-10T21:08:05;1.47;;;1.37;;
41984;SDS011;28319;48.116;10.818;2023-05-10T21:13:07;1.20;;;1.20;;
41984;SDS011;28319;48.116;10.818;2023-05-10T21:18:11;1.23;;;1.20;;
41984;SDS011;28319;48.116;10.818;2023-05-10T21:23:13;1.20;;;1.20;;
41984;SDS011;28319;48.116;10.818;2023-05-10T21:28:15;1.50;;;1.40;;
41984;SDS011;28319;48.116;10.818;2023-05-10T21:33:18;1.63;;;1.40;;
41984;SDS011;28319;48.116;10.818;2023-05-10T21:38:20;1.87;;;1.37;;
41984;SDS011;28319;48.116;10.818;2023-05-10T21:43:22;1.33;;;1.27;;
41984;SDS011;28319;48.116;10.818;2023-05-10T21:48:26;1.50;;;1.40;;
41984;SDS011;28319;48.116;10.818;2023-05-10T21:53:28;1.57;;;1.23;;
41984;SDS011;28319;48.116;10.818;2023-05-10T21:58:30;1.20;;;1.10;;
41984;SDS011;28319;48.116;10.818;2023-05-10T22:03:33;1.30;;;1.20;;
41984;SDS011;28319;48.116;10.818;2023-05-10T22:08:35;2.80;;;1.23;;
41984;SDS011;28319;48.116;10.818;2023-05-10T22:13:37;1.07;;;1.07;;
41984;SDS011;28319;48.116;10.818;2023-05-10T22:18:41;1.43;;;1.27;;
41984;SDS011;28319;48.116;10.818;2023-05-10T22:23:44;1.40;;;1.30;;
41984;SDS011;28319;48.116;10.818;2023-05-10T22:28:46;1.43;;;1.33;;
41984;SDS011;28319;48.116;10.818;2023-05-10T22:33:49;1.20;;;1.20;;
41984;SDS011;28319;48.116;10.818;2023-05-10T22:38:51;1.10;;;1.10;;
41984;SDS011;28319;48.116;10.818;2023-05-10T22:43:53;1.30;;;1.20;;
41984;SDS011;28319;48.116;10.818;2023-05-10T22:48:57;1.40;;;1.30;;
41984;SDS011;28319;48.116;10.818;2023-05-10T22:53:59;1.27;;;1.27;;
41984;SDS011;28319;48.116;10.818;2023-05-10T22:59:01;1.20;;;1.20;;
41984;SDS011;28319;48.116;10.818;2023-05-10T23:04:04;1.00;;;1.00;;
41984;SDS011;28319;48.116;10.818;2023-05-10T23:09:06;1.47;;;0.90;;
41984;SDS011;28319;48.116;10.818;2023-05-10T23:14:08;1.30;;;1.00;;
41984;SDS011;28319;48.116;10.818;2023-05-10T23:19:12;1.43;;;1.03;;
41984;SDS011;28319;48.116;10.818;2023-05-10T23:24:14;1.23;;;1.23;;
41984;SDS011;28319;48.116;10.818;2023-05-10T23:29:16;3.00;;;1.20;;
41984;SDS011;28319;48.116;10.818;2023-05-10T23:34:20;1.17;;;1.17;;
41984;SDS011;28319;48.116;10.818;2023-05-10T23:39:22;1.50;;;1.40;;
41984;SDS011;28319;48.116;10.818;2023-05-10T23:44:24;1.27;;;1.27;;
41984;SDS011;28319;48.116;10.818;2023-05-10T23:49:27;1.10;;;1.10;;
41984;SDS011;28319;48.116;10.818;2023-05-10T23:54:29;0.90;;;0.90;;
41984;SDS011;28319;48.116;10.818;2023-05-10T23:59:31;1.20;;;1.10;;
